Time;durP1;ratioP1;P1;durP2;ratioP2;P2;SDS_P1;SDS_P2;PMS_P1;PMS_P2;Temp;Humidity;BMP_temperature;BMP_pressure;BME280_temperature;BME280_humidity;BME280_pressure;Samples;Min_cycle;Max_cycle;Signal;HPM_P1;HPM_P2
2022/03/17 00:00:54;;;;;;;27.07;16.93;;;6.30;99.90;;;;;;4924408;29;20202;-86
2022/03/17 00:03:20;;;;;;;24.03;14.70;;;6.40;99.90;;;;;;4927431;29;20186;-85
2022/03/17 00:05:47;;;;;;;25.10;15.70;;;6.30;99.90;;;;;;4925413;29;20182;-85
2022/03/17 00:08:17;;;;;;;27.43;16.30;;;6.30;99.90;;;;;;4924201;29;20289;-86
2022/03/17 00:10:43;;;;;;;26.03;15.90;;;6.30;99.90;;;;;;4929814;29;20276;-85
2022/03/17 00:13:11;;;;;;;27.53;16.17;;;6.30;99.90;;;;;;4925065;29;20176;-85
2022/03/17 00:15:40;;;;;;;24.00;16.03;;;6.20;99.90;;;;;;4914643;29;20667;-85
2022/03/17 00:18:09;;;;;;;31.53;17.30;;;6.30;99.90;;;;;;4939322;29;20233;-85
2022/03/17 00:20:35;;;;;;;26.97;16.73;;;6.30;99.90;;;;;;4940526;29;20214;-85
2022/03/17 00:23:01;;;;;;;29.17;17.13;;;6.30;99.90;;;;;;4941081;29;20186;-85
2022/03/17 00:25:29;;;;;;;28.33;17.47;;;6.20;99.90;;;;;;4947247;29;20186;-84
2022/03/17 00:27:56;;;;;;;29.53;17.17;;;6.20;99.90;;;;;;4944045;29;20781;-85
2022/03/17 00:30:22;;;;;;;32.93;17.33;;;6.20;99.90;;;;;;4929466;29;20272;-85
2022/03/17 00:32:47;;;;;;;32.10;18.27;;;6.20;99.90;;;;;;4941234;29;20198;-86
2022/03/17 00:37:57;;;;;;;34.73;19.50;;;6.10;99.90;;;;;;4931614;29;20224;-85
2022/03/17 00:40:23;;;;;;;34.27;20.40;;;6.10;99.90;;;;;;4940014;29;20220;-86
2022/03/17 00:42:51;;;;;;;32.43;19.83;;;6.10;99.90;;;;;;4935995;29;20269;-83
2022/03/17 00:45:17;;;;;;;36.00;20.40;;;6.10;99.90;;;;;;4917202;29;20181;-86
2022/03/17 00:47:43;;;;;;;37.90;21.47;;;6.10;99.90;;;;;;4925607;29;20207;-84
2022/03/17 00:50:10;;;;;;;38.23;21.33;;;6.10;99.90;;;;;;4941458;29;20184;-85
2022/03/17 00:52:36;;;;;;;33.77;20.13;;;6.10;99.90;;;;;;4941296;29;20637;-85
2022/03/17 00:55:05;;;;;;;38.30;21.57;;;6.10;99.90;;;;;;4941531;29;20276;-84
2022/03/17 00:57:31;;;;;;;36.27;21.43;;;6.10;99.90;;;;;;4950039;29;20236;-84
2022/03/17 00:59:57;;;;;;;41.03;22.33;;;6.10;99.90;;;;;;4957152;28;20291;-84
2022/03/17 01:02:22;;;;;;;42.20;22.07;;;6.00;99.90;;;;;;4973412;28;20170;-84
2022/03/17 01:04:48;;;;;;;43.20;23.73;;;6.00;99.90;;;;;;4955134;28;20192;-85
2022/03/17 01:07:14;;;;;;;40.33;23.37;;;6.00;99.90;;;;;;4943126;29;20368;-85
2022/03/17 01:09:39;;;;;;;42.40;24.47;;;6.00;99.90;;;;;;4969264;28;20260;-85
2022/03/17 01:12:06;;;;;;;43.87;24.40;;;5.90;99.90;;;;;;4943533;29;20572;-84
2022/03/17 01:14:31;;;;;;;42.30;25.00;;;5.90;99.90;;;;;;4939916;29;20197;-85
2022/03/17 01:16:57;;;;;;;43.37;24.37;;;5.90;99.90;;;;;;4947745;28;20173;-84
2022/03/17 01:19:23;;;;;;;46.70;25.27;;;5.90;99.90;;;;;;4973015;28;20200;-84
2022/03/17 01:21:50;;;;;;;44.80;24.17;;;5.90;99.90;;;;;;4967365;28;20178;-84
2022/03/17 01:24:16;;;;;;;44.40;25.57;;;5.90;99.90;;;;;;4925968;29;20173;-84
2022/03/17 01:26:42;;;;;;;43.43;25.97;;;5.80;99.90;;;;;;4925887;29;20185;-86
2022/03/17 01:29:08;;;;;;;47.10;26.53;;;5.90;99.90;;;;;;4925647;29;20200;-84
2022/03/17 01:31:34;;;;;;;45.47;25.57;;;5.80;99.90;;;;;;4926042;29;20276;-86
2022/03/17 01:34:00;;;;;;;47.63;26.37;;;5.80;99.90;;;;;;4925960;29;20220;-85
2022/03/17 01:36:28;;;;;;;46.77;26.57;;;5.90;99.90;;;;;;4949565;28;20180;-85
2022/03/17 01:38:54;;;;;;;50.60;28.23;;;5.80;99.90;;;;;;4945870;28;20291;-86
2022/03/17 01:41:21;;;;;;;47.37;27.27;;;5.90;99.90;;;;;;4963183;28;20200;-85
2022/03/17 01:43:46;;;;;;;51.13;28.33;;;5.90;99.90;;;;;;4949221;28;20485;-84
2022/03/17 01:46:14;;;;;;;46.50;26.93;;;5.90;99.90;;;;;;4949350;28;20499;-86
2022/03/17 01:48:47;;;;;;;49.90;28.63;;;5.90;99.90;;;;;;4963767;28;20201;-85
2022/03/17 01:51:13;;;;;;;50.00;28.67;;;5.80;99.90;;;;;;4948235;28;20276;-84
2022/03/17 01:53:39;;;;;;;46.80;28.50;;;5.90;99.90;;;;;;4944897;29;20215;-85
2022/03/17 01:56:06;;;;;;;53.10;29.67;;;5.90;99.90;;;;;;4945397;28;20180;-85
2022/03/17 01:58:32;;;;;;;50.43;28.67;;;5.90;99.90;;;;;;4947395;28;20199;-85
2022/03/17 02:00:58;;;;;;;51.93;29.57;;;5.80;99.90;;;;;;4963378;28;20200;-84
2022/03/17 02:03:27;;;;;;;50.17;29.63;;;5.80;99.90;;;;;;4963334;28;20188;-85
2022/03/17 02:05:53;;;;;;;51.63;29.10;;;5.80;99.90;;;;;;4949800;29;20276;-86
2022/03/17 02:08:19;;;;;;;50.70;30.77;;;5.80;99.90;;;;;;4954845;28;20203;-85
2022/03/17 02:13:29;;;;;;;51.83;30.23;;;5.80;99.90;;;;;;4960093;28;20177;-85
2022/03/17 02:15:56;;;;;;;54.23;31.37;;;5.80;99.90;;;;;;4971182;28;20173;-85
2022/03/17 02:18:22;;;;;;;53.80;30.63;;;5.80;99.90;;;;;;4946183;29;20205;-85
2022/03/17 02:20:49;;;;;;;55.00;31.77;;;5.80;99.90;;;;;;4958801;28;20213;-86
2022/03/17 02:26:03;;;;;;;56.00;33.00;;;5.80;99.90;;;;;;4983239;28;20256;-85
2022/03/17 02:28:31;;;;;;;55.57;32.23;;;5.80;99.90;;;;;;4955234;28;20196;-86
2022/03/17 02:30:57;;;;;;;54.60;32.07;;;5.80;99.90;;;;;;4947217;28;20190;-85
2022/03/17 02:33:24;;;;;;;54.47;32.70;;;5.80;99.90;;;;;;4943355;29;20246;-85
2022/03/17 02:35:51;;;;;;;49.90;30.60;;;5.80;99.90;;;;;;4950165;28;20185;-84
2022/03/17 02:38:17;;;;;;;54.07;30.50;;;5.80;99.90;;;;;;4947065;28;20208;-84
2022/03/17 02:40:46;;;;;;;54.80;31.57;;;5.80;99.90;;;;;;4955525;28;20204;-85
2022/03/17 02:43:14;;;;;;;50.20;31.47;;;5.80;99.90;;;;;;4942618;28;20180;-84
2022/03/17 02:45:41;;;;;;;53.37;31.80;;;5.80;99.90;;;;;;4962879;28;20181;-85
2022/03/17 02:48:10;;;;;;;57.40;32.40;;;5.80;99.90;;;;;;4946230;28;20201;-85
2022/03/17 02:50:36;;;;;;;55.13;30.60;;;5.80;99.90;;;;;;4963747;28;20180;-85
2022/03/17 02:53:06;;;;;;;56.70;32.97;;;5.90;99.90;;;;;;4959469;28;20196;-85
2022/03/17 02:55:43;;;;;;;56.63;32.30;;;5.90;99.90;;;;;;4960493;28;20185;-84
2022/03/17 02:58:09;;;;;;;52.03;31.67;;;5.80;99.90;;;;;;4943649;29;20206;-84
2022/03/17 03:00:36;;;;;;;52.53;32.17;;;5.90;99.90;;;;;;4962941;28;20208;-85
2022/03/17 03:03:02;;;;;;;53.37;31.30;;;5.90;99.90;;;;;;4945157;29;20180;-84
2022/03/17 03:05:28;;;;;;;50.97;32.20;;;5.90;99.90;;;;;;4944793;29;20181;-86
2022/03/17 03:07:54;;;;;;;54.97;32.43;;;5.80;99.90;;;;;;4960937;29;20229;-85
2022/03/17 03:10:21;;;;;;;54.80;32.37;;;5.90;99.90;;;;;;4964982;29;20182;-85
2022/03/17 03:12:47;;;;;;;55.07;32.93;;;5.90;99.90;;;;;;4933850;29;20180;-85
2022/03/17 03:15:13;;;;;;;53.33;33.17;;;5.90;99.90;;;;;;4963897;29;20292;-85
2022/03/17 03:17:39;;;;;;;52.23;32.67;;;5.80;99.90;;;;;;4961834;28;20203;-85
2022/03/17 03:20:06;;;;;;;56.20;33.67;;;5.90;99.90;;;;;;4964814;29;20244;-85
2022/03/17 03:22:39;;;;;;;52.83;32.63;;;6.00;99.90;;;;;;4945679;29;20208;-85
2022/03/17 03:25:06;;;;;;;49.17;31.80;;;5.90;99.90;;;;;;4941130;29;20640;-85
2022/03/17 03:27:32;;;;;;;55.27;34.80;;;5.90;99.90;;;;;;4943950;29;20205;-86
2022/03/17 03:29:58;;;;;;;52.67;33.70;;;5.90;99.90;;;;;;4944282;29;20196;-83
2022/03/17 03:32:25;;;;;;;55.20;33.97;;;6.00;99.90;;;;;;4943346;29;20186;-85
2022/03/17 03:34:51;;;;;;;52.03;32.27;;;5.90;99.90;;;;;;4943479;29;20279;-84
2022/03/17 03:37:23;;;;;;;52.33;33.77;;;5.90;99.90;;;;;;4943659;28;20248;-85
2022/03/17 03:39:58;;;;;;;55.93;33.47;;;6.00;99.90;;;;;;4942896;29;20220;-85
2022/03/17 03:42:25;;;;;;;55.87;34.70;;;6.00;99.90;;;;;;4943297;28;20185;-85
2022/03/17 03:44:51;;;;;;;53.50;34.80;;;6.00;99.90;;;;;;4954686;29;20192;-85
2022/03/17 03:47:18;;;;;;;53.40;34.93;;;6.00;99.90;;;;;;4943486;29;20258;-85
2022/03/17 03:49:44;;;;;;;54.67;33.83;;;6.00;99.90;;;;;;4942220;29;20177;-85
2022/03/17 03:52:12;;;;;;;50.13;32.87;;;6.10;99.90;;;;;;4943135;29;20241;-85
2022/03/17 03:54:38;;;;;;;49.87;33.13;;;6.00;99.90;;;;;;4927945;29;20181;-85
2022/03/17 03:57:05;;;;;;;53.87;33.47;;;6.00;99.90;;;;;;4959169;29;20191;-85
2022/03/17 03:59:31;;;;;;;51.53;33.10;;;6.10;99.90;;;;;;4951596;29;20178;-85
2022/03/17 04:02:00;;;;;;;53.93;34.13;;;6.10;99.90;;;;;;4958444;28;20264;-85
2022/03/17 04:04:28;;;;;;;51.27;35.03;;;6.10;99.90;;;;;;4945885;28;20612;-85
2022/03/17 04:07:01;;;;;;;51.80;34.00;;;6.20;99.90;;;;;;4946036;28;20183;-86
2022/03/17 04:09:41;;;;;;;51.23;34.43;;;6.10;99.90;;;;;;4945313;28;20177;-85
2022/03/17 04:12:12;;;;;;;53.37;34.67;;;6.00;99.90;;;;;;4946521;28;20241;-85
2022/03/17 04:14:38;;;;;;;52.73;34.87;;;6.00;99.90;;;;;;4946069;28;20168;-85
2022/03/17 04:17:06;;;;;;;54.53;34.53;;;6.00;99.90;;;;;;4960775;28;20189;-85
2022/03/17 04:19:32;;;;;;;53.90;34.00;;;6.10;99.90;;;;;;4962330;28;20186;-86
2022/03/17 04:21:57;;;;;;;53.97;35.03;;;6.10;99.90;;;;;;4959465;28;20184;-85
2022/03/17 04:24:23;;;;;;;50.33;33.57;;;6.10;99.90;;;;;;4978225;28;20267;-84
2022/03/17 04:26:50;;;;;;;54.47;33.53;;;6.10;99.90;;;;;;4947133;28;20184;-85
2022/03/17 04:29:16;;;;;;;53.97;34.53;;;6.20;99.90;;;;;;4939450;28;20218;-85
2022/03/17 04:31:43;;;;;;;54.93;35.13;;;6.10;99.90;;;;;;4959331;29;20189;-85
2022/03/17 04:34:10;;;;;;;56.50;36.20;;;6.10;99.90;;;;;;4927157;29;20236;-86
2022/03/17 04:36:36;;;;;;;55.27;34.67;;;6.10;99.90;;;;;;4926981;29;20182;-85
2022/03/17 04:39:04;;;;;;;58.87;34.90;;;6.10;99.90;;;;;;4958538;29;20235;-85
2022/03/17 04:41:30;;;;;;;58.63;35.03;;;6.00;99.90;;;;;;4943248;29;20209;-85
2022/03/17 04:43:55;;;;;;;55.00;34.73;;;6.10;99.90;;;;;;4958596;29;20590;-85
2022/03/17 04:46:22;;;;;;;53.00;34.13;;;6.10;99.90;;;;;;4959368;28;20219;-85
2022/03/17 04:48:47;;;;;;;52.40;34.87;;;6.10;99.90;;;;;;4925826;29;20217;-85
2022/03/17 04:51:13;;;;;;;55.23;35.13;;;6.10;99.90;;;;;;4941500;29;20177;-85
2022/03/17 04:53:39;;;;;;;56.03;34.83;;;6.10;99.90;;;;;;4927252;29;20200;-85
2022/03/17 04:56:08;;;;;;;53.03;34.67;;;6.20;99.90;;;;;;4942939;29;20205;-84
2022/03/17 04:58:38;;;;;;;57.40;35.33;;;6.10;99.90;;;;;;4926662;29;20262;-85
2022/03/17 05:01:04;;;;;;;53.90;34.87;;;6.20;99.90;;;;;;4958540;28;20196;-85
2022/03/17 05:03:31;;;;;;;53.03;34.27;;;6.20;99.90;;;;;;4938970;29;20175;-85
2022/03/17 05:05:58;;;;;;;57.13;36.10;;;6.20;99.90;;;;;;4940529;29;20213;-85
2022/03/17 05:08:24;;;;;;;54.80;36.43;;;6.20;99.90;;;;;;4939367;29;20198;-85
2022/03/17 05:10:52;;;;;;;56.93;35.60;;;6.20;99.90;;;;;;4939701;29;20656;-84
2022/03/17 05:13:19;;;;;;;53.10;33.47;;;6.30;99.90;;;;;;4939634;29;20290;-85
2022/03/17 05:15:46;;;;;;;53.90;35.00;;;6.20;99.90;;;;;;4939613;29;20266;-84
2022/03/17 05:18:12;;;;;;;53.33;35.27;;;6.20;99.90;;;;;;4939533;29;20668;-84
2022/03/17 05:20:40;;;;;;;57.53;37.00;;;6.20;99.90;;;;;;4939547;29;20252;-85
2022/03/17 05:23:08;;;;;;;52.77;35.27;;;6.30;99.90;;;;;;4924485;29;20178;-85
2022/03/17 05:25:35;;;;;;;52.77;36.03;;;6.20;99.90;;;;;;4939033;29;20310;-85
2022/03/17 05:28:01;;;;;;;53.10;35.23;;;6.30;99.90;;;;;;4939966;29;20202;-84
2022/03/17 05:30:27;;;;;;;54.90;36.10;;;6.30;99.90;;;;;;4961499;28;20177;-83
2022/03/17 05:32:54;;;;;;;52.13;33.63;;;6.30;99.90;;;;;;4958282;29;20269;-84
2022/03/17 05:35:20;;;;;;;55.87;36.43;;;6.30;99.90;;;;;;4964179;28;20273;-84
2022/03/17 05:37:45;;;;;;;55.10;35.77;;;6.30;99.90;;;;;;4966923;28;20528;-84
2022/03/17 05:40:15;;;;;;;56.57;36.07;;;6.30;99.90;;;;;;4967966;28;20229;-84
2022/03/17 05:42:55;;;;;;;55.63;35.63;;;6.30;99.90;;;;;;4966353;28;20177;-85
2022/03/17 05:45:22;;;;;;;57.57;35.57;;;6.30;99.90;;;;;;4968766;28;20216;-85
2022/03/17 05:47:50;;;;;;;57.53;36.87;;;6.40;99.90;;;;;;4967740;28;20200;-84
2022/03/17 05:50:18;;;;;;;55.00;35.07;;;6.40;99.90;;;;;;4967634;28;20271;-84
2022/03/17 05:52:44;;;;;;;52.63;33.73;;;6.30;99.90;;;;;;4969019;28;20193;-84
2022/03/17 05:55:12;;;;;;;53.67;36.03;;;6.40;99.90;;;;;;4965225;28;20257;-84
2022/03/17 05:57:42;;;;;;;52.53;35.43;;;6.40;99.90;;;;;;4965996;28;20279;-85
2022/03/17 06:00:11;;;;;;;53.83;35.87;;;6.40;99.90;;;;;;4959211;28;20208;-84
2022/03/17 06:02:37;;;;;;;50.20;35.57;;;6.50;99.90;;;;;;4963627;29;20184;-84
2022/03/17 06:05:05;;;;;;;54.90;36.73;;;6.50;99.90;;;;;;4966361;28;20198;-84
2022/03/17 06:07:38;;;;;;;54.00;36.37;;;6.50;99.90;;;;;;4975983;28;20213;-85
2022/03/17 06:10:10;;;;;;;57.33;37.50;;;6.60;99.90;;;;;;4976874;28;20172;-84
2022/03/17 06:12:35;;;;;;;53.70;36.40;;;6.60;99.90;;;;;;4976829;28;20168;-84
2022/03/17 06:15:02;;;;;;;51.23;35.83;;;6.70;99.90;;;;;;4977370;28;20258;-83
2022/03/17 06:17:47;;;;;;;51.83;34.23;;;6.70;99.90;;;;;;4961372;28;20202;-86
2022/03/17 06:20:15;;;;;;;52.57;34.83;;;6.70;99.90;;;;;;4978266;28;20212;-86
2022/03/17 06:22:43;;;;;;;47.93;34.17;;;6.70;99.90;;;;;;4977227;28;20244;-85
2022/03/17 06:25:11;;;;;;;51.37;35.10;;;6.70;99.90;;;;;;4977326;28;20176;-85
2022/03/17 06:27:37;;;;;;;54.33;36.67;;;6.70;99.90;;;;;;4977606;28;20274;-86
2022/03/17 06:30:11;;;;;;;51.13;35.63;;;6.70;99.90;;;;;;4978116;28;20284;-84
2022/03/17 06:32:39;;;;;;;53.10;35.90;;;6.70;99.90;;;;;;4946874;29;20176;-85
2022/03/17 06:35:10;;;;;;;51.67;36.00;;;6.80;99.90;;;;;;4977697;28;20158;-85
2022/03/17 06:37:37;;;;;;;52.60;35.97;;;6.80;99.90;;;;;;4944657;29;20264;-85
2022/03/17 06:40:06;;;;;;;49.27;34.57;;;6.70;99.90;;;;;;4936830;29;20228;-85
2022/03/17 06:42:31;;;;;;;52.30;34.03;;;6.80;99.90;;;;;;4934530;29;20222;-84
2022/03/17 06:44:57;;;;;;;51.13;35.17;;;6.80;99.90;;;;;;4966719;28;20187;-84
2022/03/17 06:47:26;;;;;;;52.97;35.43;;;6.80;99.90;;;;;;4965536;29;20662;-85
2022/03/17 06:49:52;;;;;;;51.43;36.33;;;6.90;99.90;;;;;;4950229;29;20206;-85
2022/03/17 06:52:18;;;;;;;49.37;34.33;;;6.90;99.90;;;;;;4965883;28;20192;-85
2022/03/17 06:54:46;;;;;;;48.83;34.93;;;6.90;99.90;;;;;;4933138;29;20191;-85
2022/03/17 06:57:20;;;;;;;52.40;34.67;;;7.00;99.90;;;;;;4949388;29;20172;-85
2022/03/17 06:59:47;;;;;;;50.03;33.53;;;7.00;99.90;;;;;;4934284;29;20176;-84
2022/03/17 07:02:13;;;;;;;50.73;35.53;;;7.00;99.90;;;;;;4965306;28;20191;-85
2022/03/17 07:04:39;;;;;;;49.97;34.60;;;7.10;99.90;;;;;;4952671;28;20253;-86
2022/03/17 07:07:08;;;;;;;49.60;35.87;;;7.10;99.90;;;;;;4964868;28;20180;-86
2022/03/17 07:09:34;;;;;;;50.43;35.27;;;7.10;99.90;;;;;;4943314;29;20191;-86
2022/03/17 07:12:01;;;;;;;48.80;34.40;;;7.10;99.90;;;;;;4943026;29;20188;-86
2022/03/17 07:14:32;;;;;;;51.00;35.27;;;7.10;99.90;;;;;;4922569;29;20199;-85
2022/03/17 07:17:00;;;;;;;55.93;37.90;;;7.10;99.90;;;;;;4945072;29;20187;-85
2022/03/17 07:19:26;;;;;;;52.30;35.83;;;7.10;99.90;;;;;;4944678;29;20184;-84
2022/03/17 07:21:53;;;;;;;49.57;35.17;;;7.10;99.90;;;;;;4944233;29;20217;-84
2022/03/17 07:24:19;;;;;;;52.97;35.53;;;7.10;99.90;;;;;;4941109;29;20184;-85
2022/03/17 07:26:45;;;;;;;51.13;35.57;;;7.10;99.90;;;;;;4925436;29;20281;-85
2022/03/17 07:29:11;;;;;;;51.43;36.17;;;7.10;99.90;;;;;;4942995;28;20228;-85
2022/03/17 07:31:38;;;;;;;53.67;37.30;;;7.10;99.90;;;;;;4945903;29;20191;-85
2022/03/17 07:34:04;;;;;;;54.17;37.17;;;7.00;99.90;;;;;;4930248;29;20180;-85
2022/03/17 07:36:30;;;;;;;54.47;37.67;;;6.90;99.90;;;;;;4925335;29;20199;-86
2022/03/17 07:38:57;;;;;;;52.13;36.67;;;6.80;99.90;;;;;;4962373;28;20215;-82
2022/03/17 07:41:24;;;;;;;53.10;36.33;;;6.80;99.90;;;;;;4966498;28;20235;-86
2022/03/17 07:43:50;;;;;;;52.70;37.77;;;6.80;99.90;;;;;;4955424;29;20172;-85
2022/03/17 07:46:34;;;;;;;55.40;37.13;;;6.90;99.90;;;;;;4954879;29;20211;-85
2022/03/17 07:49:23;;;;;;;56.00;36.97;;;6.90;99.90;;;;;;4960580;29;20203;-82
2022/03/17 07:51:49;;;;;;;51.97;36.27;;;7.00;99.90;;;;;;4942301;29;20151;-82
2022/03/17 07:54:15;;;;;;;50.73;36.17;;;7.00;99.90;;;;;;4958324;29;20203;-81
2022/03/17 07:56:42;;;;;;;50.73;36.13;;;7.20;99.90;;;;;;4956189;29;20180;-84
2022/03/17 07:59:08;;;;;;;51.87;37.20;;;7.30;99.90;;;;;;4954670;29;20229;-85
2022/03/17 08:01:47;;;;;;;55.00;37.20;;;7.40;99.90;;;;;;4957472;29;20252;-85
2022/03/17 08:04:12;;;;;;;52.60;35.97;;;7.40;99.90;;;;;;4955222;29;20173;-85
2022/03/17 08:06:38;;;;;;;54.97;35.57;;;7.40;99.90;;;;;;4952293;29;20169;-85
2022/03/17 08:09:06;;;;;;;54.53;36.77;;;7.50;99.90;;;;;;4956244;29;20188;-85
2022/03/17 08:11:34;;;;;;;49.23;35.43;;;7.40;99.90;;;;;;4961787;29;20191;-85
2022/03/17 08:14:00;;;;;;;48.33;35.40;;;7.50;99.90;;;;;;4943437;29;20187;-86
2022/03/17 08:16:26;;;;;;;52.83;36.87;;;7.60;99.90;;;;;;4960232;29;20172;-85
2022/03/17 08:19:08;;;;;;;52.27;37.23;;;7.60;99.90;;;;;;4955940;28;20244;-84
2022/03/17 08:21:34;;;;;;;50.80;36.13;;;7.60;99.90;;;;;;4946283;29;20200;-84
2022/03/17 08:23:59;;;;;;;51.63;35.00;;;7.60;99.90;;;;;;4945515;29;20264;-85
2022/03/17 08:26:26;;;;;;;47.30;35.53;;;7.60;99.90;;;;;;4945023;29;20180;-85
2022/03/17 08:28:52;;;;;;;51.13;35.93;;;7.60;99.90;;;;;;4945421;29;20565;-86
2022/03/17 08:31:18;;;;;;;50.37;35.90;;;7.70;99.90;;;;;;4933823;29;20236;-86
2022/03/17 08:33:44;;;;;;;51.67;35.67;;;7.70;99.90;;;;;;4930336;29;20698;-86
2022/03/17 08:36:18;;;;;;;49.27;34.67;;;7.70;99.90;;;;;;4946138;29;20219;-85
2022/03/17 08:38:43;;;;;;;49.97;35.67;;;7.70;99.90;;;;;;4945354;29;20212;-86
2022/03/17 08:41:09;;;;;;;48.77;35.70;;;7.70;99.90;;;;;;4944913;29;20204;-85
2022/03/17 08:43:35;;;;;;;52.50;37.40;;;7.80;99.90;;;;;;4930378;28;20204;-85
2022/03/17 08:51:29;;;;;;;50.93;35.57;;;7.70;99.90;;;;;;4957538;28;20381;-84
2022/03/17 08:53:57;;;;;;;50.97;37.00;;;7.80;99.90;;;;;;4943747;29;20368;-86
2022/03/17 08:56:23;;;;;;;50.33;36.03;;;7.80;99.90;;;;;;4929040;29;20184;-85
2022/03/17 08:58:49;;;;;;;49.20;35.43;;;7.70;99.90;;;;;;4936879;29;20261;-76
2022/03/17 09:01:15;;;;;;;52.47;37.63;;;7.60;99.90;;;;;;4944014;28;20208;-83
2022/03/17 09:03:41;;;;;;;49.67;36.53;;;7.60;99.90;;;;;;4924923;29;20200;-83
2022/03/17 09:06:10;;;;;;;52.43;37.10;;;7.70;99.90;;;;;;4937120;29;20201;-83
2022/03/17 09:08:36;;;;;;;50.90;36.13;;;7.70;99.90;;;;;;4938789;29;20221;-84
2022/03/17 09:11:02;;;;;;;51.50;37.93;;;7.60;99.90;;;;;;4939936;29;20196;-82
2022/03/17 09:13:28;;;;;;;57.23;38.67;;;7.60;99.90;;;;;;4923722;29;20231;-82
2022/03/17 09:15:54;;;;;;;51.60;37.93;;;7.60;99.90;;;;;;4940058;29;20210;-83
2022/03/17 09:18:21;;;;;;;54.00;38.60;;;7.50;99.90;;;;;;4941935;29;20213;-82
2022/03/17 09:20:48;;;;;;;49.97;37.90;;;7.50;99.90;;;;;;4952116;29;20200;-83
2022/03/17 09:23:16;;;;;;;53.33;37.87;;;7.30;99.90;;;;;;4958928;29;20283;-82
2022/03/17 09:25:42;;;;;;;55.13;39.20;;;7.30;99.90;;;;;;4946857;29;20531;-82
2022/03/17 09:28:08;;;;;;;55.73;40.00;;;7.20;99.90;;;;;;4940018;29;20235;-82
2022/03/17 09:30:34;;;;;;;58.07;39.67;;;7.20;99.90;;;;;;4939865;29;20188;-79
2022/03/17 09:33:01;;;;;;;56.93;39.40;;;7.10;99.90;;;;;;4936262;29;20256;-79
2022/03/17 09:35:27;;;;;;;54.67;39.33;;;7.10;99.90;;;;;;4942208;29;20601;-79
2022/03/17 09:37:56;;;;;;;54.67;39.30;;;7.10;99.90;;;;;;4936739;29;20203;-79
2022/03/17 09:40:21;;;;;;;56.87;39.30;;;7.10;99.90;;;;;;4945573;29;20212;-79
2022/03/17 09:43:18;;;;;;;56.67;38.80;;;7.10;99.90;;;;;;4939021;29;20192;-79
2022/03/17 09:45:49;;;;;;;55.37;40.20;;;7.20;99.90;;;;;;4938651;29;20180;-77
2022/03/17 09:48:15;;;;;;;55.37;40.10;;;7.30;99.90;;;;;;4933487;29;20627;-78
2022/03/17 09:50:42;;;;;;;58.77;39.20;;;7.20;99.90;;;;;;4933679;29;20264;-81
2022/03/17 09:53:08;;;;;;;59.40;40.77;;;7.30;99.90;;;;;;4950469;28;20204;-83
2022/03/17 09:55:35;;;;;;;57.30;41.10;;;7.30;99.90;;;;;;4942321;29;20583;-82
2022/03/17 09:58:03;;;;;;;63.33;43.47;;;7.30;99.90;;;;;;4927722;29;20694;-82
2022/03/17 10:00:48;;;;;;;62.13;42.10;;;7.30;99.90;;;;;;4953002;29;20204;-82
2022/03/17 10:03:16;;;;;;;61.03;42.50;;;7.20;99.90;;;;;;4937026;29;20184;-82
2022/03/17 10:05:45;;;;;;;64.63;43.63;;;7.30;99.90;;;;;;4932849;29;20189;-82
2022/03/17 10:08:11;;;;;;;62.10;43.77;;;7.30;99.90;;;;;;4949851;29;20210;-82
2022/03/17 10:10:38;;;;;;;64.47;44.33;;;7.20;99.90;;;;;;4934310;29;20207;-82
2022/03/17 10:13:06;;;;;;;66.97;45.37;;;7.10;99.90;;;;;;4951878;29;20208;-82
2022/03/17 10:15:32;;;;;;;64.93;44.80;;;7.20;99.90;;;;;;4942904;29;20223;-82
2022/03/17 10:17:57;;;;;;;63.20;44.60;;;7.20;99.90;;;;;;4954356;29;20192;-82
2022/03/17 10:20:28;;;;;;;66.73;45.23;;;7.20;99.90;;;;;;4950748;29;20214;-81
2022/03/17 10:23:01;;;;;;;66.53;44.40;;;7.20;99.90;;;;;;4938499;29;20176;-82
2022/03/17 10:25:32;;;;;;;62.60;45.67;;;7.30;99.90;;;;;;4971331;28;20356;-82
2022/03/17 10:27:59;;;;;;;63.90;43.90;;;7.30;99.90;;;;;;4951035;29;20649;-81
2022/03/17 10:30:32;;;;;;;69.90;45.70;;;7.30;99.90;;;;;;4954377;29;20204;-81
2022/03/17 10:33:03;;;;;;;67.13;46.20;;;7.30;99.90;;;;;;4959101;28;20241;-82
2022/03/17 10:35:34;;;;;;;74.80;46.17;;;7.40;99.90;;;;;;4953777;29;20204;-81
2022/03/17 10:38:19;;;;;;;65.30;44.50;;;7.40;99.90;;;;;;4949718;28;20200;-82
2022/03/17 10:41:04;;;;;;;63.13;43.77;;;7.40;99.90;;;;;;4945213;29;20208;-81
2022/03/17 10:43:31;;;;;;;65.73;43.93;;;7.40;99.90;;;;;;4929841;29;20177;-81
2022/03/17 10:46:11;;;;;;;64.77;45.77;;;7.40;99.90;;;;;;4947053;29;20178;-81
2022/03/17 10:48:59;;;;;;;58.87;40.43;;;7.30;99.90;;;;;;4967239;29;20294;-80
2022/03/17 10:51:37;;;;;;;66.50;44.77;;;7.30;99.90;;;;;;4951851;29;20187;-82
2022/03/17 10:54:09;;;;;;;67.20;44.80;;;7.20;99.90;;;;;;4949654;29;20196;-81
2022/03/17 10:56:40;;;;;;;66.60;45.80;;;7.20;99.90;;;;;;4963140;29;20202;-81
2022/03/17 10:59:09;;;;;;;68.57;45.23;;;7.20;99.90;;;;;;4961690;28;20225;-82
2022/03/17 11:38:20;;;;;;;29.40;15.60;;;6.90;99.90;;;;;;6047109;23;20222;31
2022/03/17 11:41:32;;;;;;;25.07;13.47;;;7.00;99.90;;;;;;4937877;29;20225;-82
2022/03/17 11:43:59;;;;;;;19.63;12.43;;;7.10;99.90;;;;;;4939914;29;20195;-81
2022/03/17 11:46:39;;;;;;;24.97;13.87;;;7.20;99.90;;;;;;4927019;29;20273;-82
2022/03/17 11:49:22;;;;;;;16.53;10.20;;;7.30;99.90;;;;;;4958328;29;20199;-83
2022/03/17 11:52:00;;;;;;;20.37;10.50;;;7.40;99.90;;;;;;4959684;29;20195;-83
2022/03/17 11:54:27;;;;;;;17.10;9.33;;;7.50;99.90;;;;;;4930213;29;20187;-82
2022/03/17 11:56:56;;;;;;;17.27;9.60;;;7.60;99.90;;;;;;4944866;29;20203;-81
2022/03/17 11:59:30;;;;;;;15.93;8.20;;;7.60;99.90;;;;;;4951375;29;20216;-81
2022/03/17 12:01:58;;;;;;;16.77;7.43;;;7.80;99.90;;;;;;4938608;29;20207;-82
2022/03/17 12:04:31;;;;;;;11.27;6.03;;;7.80;99.90;;;;;;4940144;29;20191;-82
2022/03/17 12:07:08;;;;;;;11.60;4.53;;;7.80;99.90;;;;;;4941839;29;20194;-82
2022/03/17 12:09:37;;;;;;;11.07;5.03;;;7.70;99.90;;;;;;4935598;29;20179;-82
2022/03/17 12:12:24;;;;;;;9.90;4.77;;;7.60;99.90;;;;;;4960881;29;20191;-83
2022/03/17 12:14:55;;;;;;;8.80;4.07;;;7.60;99.90;;;;;;4935384;29;20202;-82
2022/03/17 12:17:27;;;;;;;8.00;3.93;;;7.50;99.90;;;;;;4966062;29;20688;-82
2022/03/17 12:20:19;;;;;;;6.83;3.47;;;7.40;99.90;;;;;;4968966;29;20230;-82
2022/03/17 12:22:45;;;;;;;8.60;3.53;;;7.50;99.90;;;;;;4965844;29;20187;-82
2022/03/17 12:25:21;;;;;;;7.73;3.57;;;7.60;99.90;;;;;;4943846;29;20172;-82
2022/03/17 12:27:53;;;;;;;6.90;3.20;;;7.80;99.90;;;;;;4944987;29;20195;-82
2022/03/17 12:30:20;;;;;;;9.03;2.60;;;8.00;99.90;;;;;;4936013;29;20193;-83
2022/03/17 12:32:51;;;;;;;8.07;2.97;;;8.00;99.90;;;;;;4929431;29;20185;-83
2022/03/17 12:35:23;;;;;;;5.63;2.27;;;8.00;99.90;;;;;;4939910;29;20184;-82
2022/03/17 12:37:49;;;;;;;11.73;2.77;;;8.00;99.90;;;;;;4958527;29;20216;-82
2022/03/17 12:40:20;;;;;;;8.23;2.23;;;7.90;99.90;;;;;;4952637;28;20203;-82
2022/03/17 12:42:48;;;;;;;7.13;1.90;;;7.90;99.90;;;;;;4966608;28;20613;-83
2022/03/17 12:45:16;;;;;;;6.57;2.10;;;7.90;99.90;;;;;;4970626;28;20202;-83
2022/03/17 12:47:46;;;;;;;10.17;2.20;;;7.80;99.90;;;;;;4945544;29;20207;-83
2022/03/17 12:50:18;;;;;;;11.67;2.23;;;7.70;99.90;;;;;;4946158;29;20211;-82
2022/03/17 12:52:46;;;;;;;6.27;1.57;;;7.60;99.90;;;;;;4970440;28;20255;-82
2022/03/17 12:55:15;;;;;;;8.57;1.87;;;7.60;99.90;;;;;;4974587;28;20193;-82
2022/03/17 12:57:42;;;;;;;8.63;2.13;;;7.50;99.90;;;;;;4968884;28;20394;-81
2022/03/17 13:00:12;;;;;;;8.23;2.57;;;7.60;99.90;;;;;;4952052;28;22124;-82
2022/03/17 13:02:48;;;;;;;8.47;2.10;;;7.60;99.90;;;;;;4970956;28;20175;-83
2022/03/17 13:08:01;;;;;;;7.07;2.37;;;7.80;99.90;;;;;;4945376;29;20206;-83
2022/03/17 13:10:27;;;;;;;8.10;2.00;;;7.90;99.90;;;;;;4963678;28;20192;-78
2022/03/17 13:15:51;;;;;;;8.37;2.17;;;7.90;99.90;;;;;;4968421;28;20184;-83
2022/03/17 13:18:17;;;;;;;13.27;4.17;;;7.90;99.90;;;;;;4942389;29;20301;-79
2022/03/17 13:20:44;;;;;;;10.37;3.20;;;7.90;99.90;;;;;;4944249;28;20222;-79
2022/03/17 13:23:15;;;;;;;12.83;3.10;;;8.00;99.90;;;;;;4933897;29;20185;-80
2022/03/17 13:25:41;;;;;;;11.10;2.60;;;8.00;99.90;;;;;;4956654;28;20195;-79
2022/03/17 13:28:12;;;;;;;15.20;3.63;;;8.00;99.90;;;;;;4955189;29;20204;-79
2022/03/17 13:30:53;;;;;;;14.13;2.87;;;8.00;99.90;;;;;;4950332;28;20194;-79
2022/03/17 13:33:35;;;;;;;9.43;2.57;;;7.90;99.90;;;;;;4963791;28;20600;-79
2022/03/17 13:36:01;;;;;;;12.23;2.40;;;7.90;99.90;;;;;;4936622;29;20184;-80
2022/03/17 13:38:35;;;;;;;13.10;2.93;;;7.80;99.90;;;;;;4950429;28;20213;-79
2022/03/17 13:41:01;;;;;;;15.83;3.20;;;7.70;99.90;;;;;;4961121;29;20200;-80